sensor_id;sensor_type;location;lat;lon;timestamp;P1;durP1;ratioP1;P2;durP2;ratioP2
18001;SDS011;9126;48.160;17.130;2022-10-16T00:01:07;45.13;;;33.73;;
18001;SDS011;9126;48.160;17.130;2022-10-16T00:03:36;44.17;;;39.50;;
18001;SDS011;9126;48.160;17.130;2022-10-16T00:06:04;45.23;;;39.23;;
18001;SDS011;9126;48.160;17.130;2022-10-16T00:08:34;41.60;;;37.30;;
18001;SDS011;9126;48.160;17.130;2022-10-16T00:11:03;41.47;;;37.07;;
18001;SDS011;9126;48.160;17.130;2022-10-16T00:13:31;42.77;;;38.33;;
18001;SDS011;9126;48.160;17.130;2022-10-16T00:16:00;40.87;;;36.57;;
18001;SDS011;9126;48.160;17.130;2022-10-16T00:18:28;40.97;;;35.53;;
18001;SDS011;9126;48.160;17.130;2022-10-16T00:21:02;38.70;;;34.50;;
18001;SDS011;9126;48.160;17.130;2022-10-16T00:23:30;38.23;;;34.53;;
18001;SDS011;9126;48.160;17.130;2022-10-16T00:26:00;40.23;;;36.13;;
18001;SDS011;9126;48.160;17.130;2022-10-16T00:28:30;37.63;;;33.90;;
18001;SDS011;9126;48.160;17.130;2022-10-16T00:30:58;39.30;;;35.23;;
18001;SDS011;9126;48.160;17.130;2022-10-16T00:33:30;37.90;;;34.13;;
18001;SDS011;9126;48.160;17.130;2022-10-16T00:35:58;38.90;;;35.17;;
18001;SDS011;9126;48.160;17.130;2022-10-16T00:38:27;36.53;;;33.00;;
18001;SDS011;9126;48.160;17.130;2022-10-16T00:40:54;37.60;;;33.57;;
18001;SDS011;9126;48.160;17.130;2022-10-16T00:43:35;40.53;;;36.57;;
18001;SDS011;9126;48.160;17.130;2022-10-16T00:46:10;40.80;;;36.43;;
18001;SDS011;9126;48.160;17.130;2022-10-16T00:48:42;40.90;;;36.50;;
18001;SDS011;9126;48.160;17.130;2022-10-16T00:51:15;43.03;;;38.53;;
18001;SDS011;9126;48.160;17.130;2022-10-16T00:53:45;42.63;;;38.43;;
18001;SDS011;9126;48.160;17.130;2022-10-16T00:56:14;40.83;;;36.60;;
18001;SDS011;9126;48.160;17.130;2022-10-16T00:58:42;40.20;;;36.17;;
18001;SDS011;9126;48.160;17.130;2022-10-16T01:01:11;40.17;;;35.97;;
18001;SDS011;9126;48.160;17.130;2022-10-16T01:03:40;39.53;;;35.63;;
18001;SDS011;9126;48.160;17.130;2022-10-16T01:06:19;35.87;;;32.27;;
18001;SDS011;9126;48.160;17.130;2022-10-16T01:08:58;37.60;;;33.03;;
18001;SDS011;9126;48.160;17.130;2022-10-16T01:11:37;36.90;;;33.07;;
18001;SDS011;9126;48.160;17.130;2022-10-16T01:14:14;36.93;;;33.07;;
18001;SDS011;9126;48.160;17.130;2022-10-16T01:16:51;33.07;;;29.77;;
18001;SDS011;9126;48.160;17.130;2022-10-16T01:19:36;31.47;;;28.30;;
18001;SDS011;9126;48.160;17.130;2022-10-16T01:22:10;31.00;;;27.80;;
18001;SDS011;9126;48.160;17.130;2022-10-16T01:24:39;29.57;;;26.47;;
18001;SDS011;9126;48.160;17.130;2022-10-16T01:27:13;29.97;;;26.97;;
18001;SDS011;9126;48.160;17.130;2022-10-16T01:29:49;30.70;;;27.60;;
18001;SDS011;9126;48.160;17.130;2022-10-16T01:32:24;30.27;;;27.13;;
18001;SDS011;9126;48.160;17.130;2022-10-16T01:34:58;30.57;;;27.43;;
18001;SDS011;9126;48.160;17.130;2022-10-16T01:37:32;30.67;;;27.50;;
18001;SDS011;9126;48.160;17.130;2022-10-16T01:40:06;27.60;;;25.00;;
18001;SDS011;9126;48.160;17.130;2022-10-16T01:42:38;28.30;;;25.57;;
18001;SDS011;9126;48.160;17.130;2022-10-16T01:45:09;27.40;;;24.70;;
18001;SDS011;9126;48.160;17.130;2022-10-16T01:47:39;28.87;;;25.87;;
18001;SDS011;9126;48.160;17.130;2022-10-16T01:50:10;26.57;;;23.87;;
18001;SDS011;9126;48.160;17.130;2022-10-16T01:52:41;24.77;;;22.20;;
18001;SDS011;9126;48.160;17.130;2022-10-16T01:55:16;26.80;;;22.23;;
18001;SDS011;9126;48.160;17.130;2022-10-16T01:57:48;26.27;;;23.00;;
18001;SDS011;9126;48.160;17.130;2022-10-16T02:00:20;26.03;;;23.23;;
18001;SDS011;9126;48.160;17.130;2022-10-16T02:02:51;25.07;;;22.70;;
18001;SDS011;9126;48.160;17.130;2022-10-16T02:05:21;25.50;;;22.40;;
18001;SDS011;9126;48.160;17.130;2022-10-16T02:08:00;25.07;;;22.50;;
18001;SDS011;9126;48.160;17.130;2022-10-16T02:10:27;23.97;;;21.47;;
18001;SDS011;9126;48.160;17.130;2022-10-16T02:13:06;24.37;;;20.83;;
18001;SDS011;9126;48.160;17.130;2022-10-16T02:15:37;25.13;;;21.97;;
18001;SDS011;9126;48.160;17.130;2022-10-16T02:18:04;24.07;;;21.67;;
18001;SDS011;9126;48.160;17.130;2022-10-16T02:20:34;24.83;;;22.43;;
18001;SDS011;9126;48.160;17.130;2022-10-16T02:23:04;27.90;;;25.07;;
18001;SDS011;9126;48.160;17.130;2022-10-16T02:25:38;29.03;;;26.10;;
18001;SDS011;9126;48.160;17.130;2022-10-16T02:28:11;31.17;;;28.03;;
18001;SDS011;9126;48.160;17.130;2022-10-16T02:30:43;28.27;;;25.30;;
18001;SDS011;9126;48.160;17.130;2022-10-16T02:33:13;28.83;;;25.90;;
18001;SDS011;9126;48.160;17.130;2022-10-16T02:35:43;29.03;;;26.00;;
18001;SDS011;9126;48.160;17.130;2022-10-16T02:38:13;29.90;;;25.23;;
18001;SDS011;9126;48.160;17.130;2022-10-16T02:40:43;27.97;;;24.97;;
18001;SDS011;9126;48.160;17.130;2022-10-16T02:43:12;27.17;;;24.47;;
18001;SDS011;9126;48.160;17.130;2022-10-16T02:45:43;26.60;;;22.63;;
18001;SDS011;9126;48.160;17.130;2022-10-16T02:48:13;24.43;;;22.03;;
18001;SDS011;9126;48.160;17.130;2022-10-16T02:50:40;27.43;;;24.63;;
18001;SDS011;9126;48.160;17.130;2022-10-16T02:53:09;27.60;;;24.70;;
18001;SDS011;9126;48.160;17.130;2022-10-16T02:55:38;32.97;;;28.13;;
18001;SDS011;9126;48.160;17.130;2022-10-16T02:58:05;29.93;;;26.30;;
18001;SDS011;9126;48.160;17.130;2022-10-16T03:00:36;30.33;;;26.77;;
18001;SDS011;9126;48.160;17.130;2022-10-16T03:03:04;31.20;;;27.97;;
18001;SDS011;9126;48.160;17.130;2022-10-16T03:05:31;30.60;;;27.33;;
18001;SDS011;9126;48.160;17.130;2022-10-16T03:07:59;29.97;;;26.83;;
18001;SDS011;9126;48.160;17.130;2022-10-16T03:10:26;30.43;;;27.43;;
18001;SDS011;9126;48.160;17.130;2022-10-16T03:12:54;30.07;;;27.17;;
18001;SDS011;9126;48.160;17.130;2022-10-16T03:15:21;30.77;;;27.53;;
18001;SDS011;9126;48.160;17.130;2022-10-16T03:17:50;33.60;;;28.67;;
18001;SDS011;9126;48.160;17.130;2022-10-16T03:20:20;32.27;;;28.70;;
18001;SDS011;9126;48.160;17.130;2022-10-16T03:22:48;32.13;;;28.70;;
18001;SDS011;9126;48.160;17.130;2022-10-16T03:25:18;31.27;;;28.00;;
18001;SDS011;9126;48.160;17.130;2022-10-16T03:27:45;33.27;;;29.77;;
18001;SDS011;9126;48.160;17.130;2022-10-16T03:30:12;33.80;;;30.23;;
18001;SDS011;9126;48.160;17.130;2022-10-16T03:32:40;33.80;;;30.30;;
18001;SDS011;9126;48.160;17.130;2022-10-16T03:35:24;33.27;;;29.83;;
18001;SDS011;9126;48.160;17.130;2022-10-16T03:37:56;34.60;;;30.93;;
18001;SDS011;9126;48.160;17.130;2022-10-16T03:40:24;33.10;;;29.73;;
18001;SDS011;9126;48.160;17.130;2022-10-16T03:42:52;30.93;;;27.90;;
18001;SDS011;9126;48.160;17.130;2022-10-16T03:45:22;37.83;;;31.03;;
18001;SDS011;9126;48.160;17.130;2022-10-16T03:47:49;28.47;;;25.47;;
18001;SDS011;9126;48.160;17.130;2022-10-16T03:50:17;28.43;;;25.53;;
18001;SDS011;9126;48.160;17.130;2022-10-16T03:52:46;27.70;;;24.97;;
18001;SDS011;9126;48.160;17.130;2022-10-16T03:55:14;27.57;;;24.60;;
18001;SDS011;9126;48.160;17.130;2022-10-16T03:57:41;27.20;;;24.47;;
18001;SDS011;9126;48.160;17.130;2022-10-16T04:00:12;25.97;;;23.53;;
18001;SDS011;9126;48.160;17.130;2022-10-16T04:02:42;26.13;;;23.37;;
18001;SDS011;9126;48.160;17.130;2022-10-16T04:05:09;24.40;;;22.10;;
18001;SDS011;9126;48.160;17.130;2022-10-16T04:07:36;24.30;;;21.97;;
18001;SDS011;9126;48.160;17.130;2022-10-16T04:10:06;25.73;;;23.23;;
18001;SDS011;9126;48.160;17.130;2022-10-16T04:12:34;26.07;;;23.10;;
18001;SDS011;9126;48.160;17.130;2022-10-16T04:15:05;25.77;;;23.00;;
18001;SDS011;9126;48.160;17.130;2022-10-16T04:17:33;25.87;;;22.93;;
18001;SDS011;9126;48.160;17.130;2022-10-16T04:20:00;24.80;;;22.47;;
18001;SDS011;9126;48.160;17.130;2022-10-16T04:22:28;26.33;;;23.73;;
18001;SDS011;9126;48.160;17.130;2022-10-16T04:24:55;24.73;;;22.27;;
18001;SDS011;9126;48.160;17.130;2022-10-16T04:27:26;24.23;;;21.73;;
18001;SDS011;9126;48.160;17.130;2022-10-16T04:29:57;25.33;;;22.93;;
18001;SDS011;9126;48.160;17.130;2022-10-16T04:32:25;24.30;;;21.77;;
18001;SDS011;9126;48.160;17.130;2022-10-16T04:34:54;25.23;;;22.40;;
18001;SDS011;9126;48.160;17.130;2022-10-16T04:37:23;24.60;;;21.70;;
18001;SDS011;9126;48.160;17.130;2022-10-16T04:39:51;25.43;;;22.07;;
18001;SDS011;9126;48.160;17.130;2022-10-16T04:42:18;23.67;;;21.27;;
18001;SDS011;9126;48.160;17.130;2022-10-16T04:44:49;25.47;;;22.63;;
18001;SDS011;9126;48.160;17.130;2022-10-16T04:47:16;24.70;;;22.10;;
18001;SDS011;9126;48.160;17.130;2022-10-16T04:49:44;25.13;;;22.63;;
18001;SDS011;9126;48.160;17.130;2022-10-16T04:52:11;24.10;;;21.77;;
18001;SDS011;9126;48.160;17.130;2022-10-16T04:54:39;23.93;;;21.63;;
18001;SDS011;9126;48.160;17.130;2022-10-16T04:57:06;24.73;;;22.27;;
18001;SDS011;9126;48.160;17.130;2022-10-16T04:59:37;29.50;;;23.50;;
18001;SDS011;9126;48.160;17.130;2022-10-16T05:02:06;25.90;;;23.30;;
18001;SDS011;9126;48.160;17.130;2022-10-16T05:04:34;25.03;;;22.53;;
18001;SDS011;9126;48.160;17.130;2022-10-16T05:07:01;25.77;;;23.23;;
18001;SDS011;9126;48.160;17.130;2022-10-16T05:09:28;25.70;;;23.10;;
18001;SDS011;9126;48.160;17.130;2022-10-16T05:11:55;24.83;;;22.57;;
18001;SDS011;9126;48.160;17.130;2022-10-16T05:14:24;25.03;;;22.77;;
18001;SDS011;9126;48.160;17.130;2022-10-16T05:16:51;25.30;;;22.80;;
18001;SDS011;9126;48.160;17.130;2022-10-16T05:19:20;26.63;;;24.13;;
18001;SDS011;9126;48.160;17.130;2022-10-16T05:21:48;25.50;;;23.03;;
18001;SDS011;9126;48.160;17.130;2022-10-16T05:24:16;27.47;;;23.27;;
18001;SDS011;9126;48.160;17.130;2022-10-16T05:26:43;26.73;;;24.23;;
18001;SDS011;9126;48.160;17.130;2022-10-16T05:29:10;25.83;;;23.33;;
18001;SDS011;9126;48.160;17.130;2022-10-16T05:31:37;29.57;;;23.77;;
18001;SDS011;9126;48.160;17.130;2022-10-16T05:34:04;26.67;;;23.30;;
18001;SDS011;9126;48.160;17.130;2022-10-16T05:36:32;25.30;;;22.93;;
18001;SDS011;9126;48.160;17.130;2022-10-16T05:39:00;25.77;;;22.93;;
18001;SDS011;9126;48.160;17.130;2022-10-16T05:41:28;25.40;;;22.70;;
18001;SDS011;9126;48.160;17.130;2022-10-16T05:43:57;25.57;;;22.80;;
18001;SDS011;9126;48.160;17.130;2022-10-16T05:46:26;25.17;;;22.67;;
18001;SDS011;9126;48.160;17.130;2022-10-16T05:48:54;23.93;;;21.60;;
18001;SDS011;9126;48.160;17.130;2022-10-16T05:51:23;22.67;;;20.27;;
18001;SDS011;9126;48.160;17.130;2022-10-16T05:53:52;24.87;;;22.27;;
18001;SDS011;9126;48.160;17.130;2022-10-16T05:56:19;25.13;;;22.30;;
18001;SDS011;9126;48.160;17.130;2022-10-16T05:58:47;23.97;;;21.70;;
18001;SDS011;9126;48.160;17.130;2022-10-16T06:01:15;23.23;;;20.80;;
18001;SDS011;9126;48.160;17.130;2022-10-16T06:03:43;22.30;;;20.20;;
18001;SDS011;9126;48.160;17.130;2022-10-16T06:06:11;23.60;;;21.27;;
18001;SDS011;9126;48.160;17.130;2022-10-16T06:08:39;27.67;;;20.93;;
18001;SDS011;9126;48.160;17.130;2022-10-16T06:11:09;21.80;;;19.50;;
18001;SDS011;9126;48.160;17.130;2022-10-16T06:13:38;25.37;;;19.93;;
18001;SDS011;9126;48.160;17.130;2022-10-16T06:16:08;20.70;;;18.67;;
18001;SDS011;9126;48.160;17.130;2022-10-16T06:18:36;20.30;;;17.97;;
18001;SDS011;9126;48.160;17.130;2022-10-16T06:21:06;20.30;;;18.20;;
18001;SDS011;9126;48.160;17.130;2022-10-16T06:23:34;19.67;;;17.97;;
18001;SDS011;9126;48.160;17.130;2022-10-16T06:26:05;20.57;;;17.70;;
18001;SDS011;9126;48.160;17.130;2022-10-16T06:28:34;18.37;;;16.60;;
18001;SDS011;9126;48.160;17.130;2022-10-16T06:31:02;19.07;;;17.10;;
18001;SDS011;9126;48.160;17.130;2022-10-16T06:33:30;18.23;;;16.43;;
18001;SDS011;9126;48.160;17.130;2022-10-16T06:36:01;20.17;;;17.03;;
18001;SDS011;9126;48.160;17.130;2022-10-16T06:38:28;16.97;;;15.20;;
18001;SDS011;9126;48.160;17.130;2022-10-16T06:40:57;17.97;;;16.17;;
18001;SDS011;9126;48.160;17.130;2022-10-16T06:43:24;18.30;;;16.13;;
18001;SDS011;9126;48.160;17.130;2022-10-16T06:45:53;18.13;;;16.30;;
18001;SDS011;9126;48.160;17.130;2022-10-16T06:48:21;17.80;;;16.00;;
18001;SDS011;9126;48.160;17.130;2022-10-16T06:50:55;17.83;;;16.13;;
18001;SDS011;9126;48.160;17.130;2022-10-16T06:53:23;18.60;;;16.80;;
18001;SDS011;9126;48.160;17.130;2022-10-16T06:55:50;19.77;;;15.67;;
18001;SDS011;9126;48.160;17.130;2022-10-16T06:58:18;17.00;;;15.20;;
18001;SDS011;9126;48.160;17.130;2022-10-16T07:00:46;19.60;;;15.57;;
18001;SDS011;9126;48.160;17.130;2022-10-16T07:03:16;17.53;;;15.70;;
18001;SDS011;9126;48.160;17.130;2022-10-16T07:05:44;16.47;;;14.70;;
18001;SDS011;9126;48.160;17.130;2022-10-16T07:08:11;16.37;;;14.67;;
18001;SDS011;9126;48.160;17.130;2022-10-16T07:10:38;19.53;;;14.67;;
18001;SDS011;9126;48.160;17.130;2022-10-16T07:13:06;15.73;;;14.03;;
18001;SDS011;9126;48.160;17.130;2022-10-16T07:15:33;15.80;;;14.00;;
18001;SDS011;9126;48.160;17.130;2022-10-16T07:18:01;15.93;;;14.13;;
18001;SDS011;9126;48.160;17.130;2022-10-16T07:20:30;13.97;;;12.47;;
18001;SDS011;9126;48.160;17.130;2022-10-16T07:22:57;14.13;;;12.60;;
18001;SDS011;9126;48.160;17.130;2022-10-16T07:25:24;15.90;;;13.53;;
18001;SDS011;9126;48.160;17.130;2022-10-16T07:27:53;15.57;;;13.80;;
18001;SDS011;9126;48.160;17.130;2022-10-16T07:30:22;15.00;;;13.50;;
18001;SDS011;9126;48.160;17.130;2022-10-16T07:32:49;17.20;;;12.53;;
18001;SDS011;9126;48.160;17.130;2022-10-16T07:35:21;17.53;;;14.13;;
18001;SDS011;9126;48.160;17.130;2022-10-16T07:37:50;16.90;;;12.40;;
18001;SDS011;9126;48.160;17.130;2022-10-16T07:40:17;19.10;;;13.10;;
18001;SDS011;9126;48.160;17.130;2022-10-16T07:42:45;15.13;;;13.53;;
18001;SDS011;9126;48.160;17.130;2022-10-16T07:45:12;19.70;;;13.83;;
18001;SDS011;9126;48.160;17.130;2022-10-16T07:47:42;16.20;;;12.43;;
18001;SDS011;9126;48.160;17.130;2022-10-16T07:50:19;15.97;;;14.37;;
18001;SDS011;9126;48.160;17.130;2022-10-16T07:52:58;17.63;;;13.80;;
18001;SDS011;9126;48.160;17.130;2022-10-16T07:55:25;17.47;;;12.20;;
18001;SDS011;9126;48.160;17.130;2022-10-16T07:57:55;18.03;;;13.67;;
18001;SDS011;9126;48.160;17.130;2022-10-16T08:00:22;18.97;;;13.30;;
18001;SDS011;9126;48.160;17.130;2022-10-16T08:02:51;13.93;;;12.57;;
18001;SDS011;9126;48.160;17.130;2022-10-16T08:05:19;16.57;;;13.23;;
18001;SDS011;9126;48.160;17.130;2022-10-16T08:07:48;14.17;;;12.37;;
18001;SDS011;9126;48.160;17.130;2022-10-16T08:10:25;15.13;;;12.80;;
18001;SDS011;9126;48.160;17.130;2022-10-16T08:12:54;19.67;;;13.30;;
18001;SDS011;9126;48.160;17.130;2022-10-16T08:15:22;16.77;;;12.75;;
18001;SDS011;9126;48.160;17.130;2022-10-16T08:17:57;19.17;;;12.80;;
18001;SDS011;9126;48.160;17.130;2022-10-16T08:20:28;18.05;;;13.68;;
18001;SDS011;9126;48.160;17.130;2022-10-16T08:22:56;18.58;;;13.15;;
18001;SDS011;9126;48.160;17.130;2022-10-16T08:25:25;17.30;;;12.32;;
18001;SDS011;9126;48.160;17.130;2022-10-16T08:27:52;19.00;;;12.63;;
18001;SDS011;9126;48.160;17.130;2022-10-16T08:30:23;15.65;;;12.68;;
18001;SDS011;9126;48.160;17.130;2022-10-16T08:32:51;19.17;;;12.75;;
18001;SDS011;9126;48.160;17.130;2022-10-16T08:35:19;21.83;;;14.43;;
18001;SDS011;9126;48.160;17.130;2022-10-16T08:38:03;17.90;;;15.48;;
18001;SDS011;9126;48.160;17.130;2022-10-16T08:46:15;19.33;;;16.17;;
18001;SDS011;9126;48.160;17.130;2022-10-16T08:48:57;22.10;;;16.43;;
18001;SDS011;9126;48.160;17.130;2022-10-16T08:51:27;20.10;;;15.63;;
18001;SDS011;9126;48.160;17.130;2022-10-16T08:53:58;19.20;;;16.10;;
18001;SDS011;9126;48.160;17.130;2022-10-16T08:56:29;20.53;;;16.60;;
18001;SDS011;9126;48.160;17.130;2022-10-16T08:58:58;22.60;;;17.20;;
18001;SDS011;9126;48.160;17.130;2022-10-16T09:01:32;20.03;;;16.13;;
18001;SDS011;9126;48.160;17.130;2022-10-16T09:07:09;23.00;;;17.57;;
18001;SDS011;9126;48.160;17.130;2022-10-16T09:09:47;22.90;;;16.70;;
18001;SDS011;9126;48.160;17.130;2022-10-16T09:12:31;21.88;;;16.00;;
18001;SDS011;9126;48.160;17.130;2022-10-16T09:15:07;20.80;;;15.77;;
18001;SDS011;9126;48.160;17.130;2022-10-16T09:17:49;19.42;;;16.60;;
18001;SDS011;9126;48.160;17.130;2022-10-16T09:20:26;22.60;;;16.25;;
18001;SDS011;9126;48.160;17.130;2022-10-16T09:23:14;21.35;;;18.02;;
18001;SDS011;9126;48.160;17.130;2022-10-16T09:25:45;26.60;;;18.73;;
18001;SDS011;9126;48.160;17.130;2022-10-16T09:28:16;23.50;;;19.23;;
18001;SDS011;9126;48.160;17.130;2022-10-16T09:30:46;21.27;;;17.70;;
18001;SDS011;9126;48.160;17.130;2022-10-16T09:33:15;24.08;;;18.15;;
18001;SDS011;9126;48.160;17.130;2022-10-16T09:35:46;19.42;;;16.02;;
18001;SDS011;9126;48.160;17.130;2022-10-16T09:38:23;23.02;;;17.77;;
18001;SDS011;9126;48.160;17.130;2022-10-16T09:40:53;21.63;;;18.23;;
18001;SDS011;9126;48.160;17.130;2022-10-16T09:43:24;25.58;;;18.77;;
18001;SDS011;9126;48.160;17.130;2022-10-16T09:45:57;23.23;;;17.27;;
18001;SDS011;9126;48.160;17.130;2022-10-16T09:48:27;23.15;;;17.13;;
18001;SDS011;9126;48.160;17.130;2022-10-16T09:50:59;20.00;;;17.42;;
18001;SDS011;9126;48.160;17.130;2022-10-16T09:53:41;23.33;;;20.00;;
18001;SDS011;9126;48.160;17.130;2022-10-16T09:56:11;22.60;;;19.65;;
18001;SDS011;9126;48.160;17.130;2022-10-16T09:58:50;22.75;;;18.80;;
18001;SDS011;9126;48.160;17.130;2022-10-16T10:01:19;23.88;;;18.52;;
18001;SDS011;9126;48.160;17.130;2022-10-16T10:03:56;21.83;;;19.50;;
18001;SDS011;9126;48.160;17.130;2022-10-16T10:06:29;25.58;;;21.58;;
18001;SDS011;9126;48.160;17.130;2022-10-16T10:09:03;26.27;;;19.80;;
18001;SDS011;9126;48.160;17.130;2022-10-16T10:11:37;32.42;;;22.23;;
18001;SDS011;9126;48.160;17.130;2022-10-16T10:17:10;26.65;;;21.35;;
18001;SDS011;9126;48.160;17.130;2022-10-16T10:19:51;32.22;;;21.52;;
18001;SDS011;9126;48.160;17.130;2022-10-16T10:22:27;26.70;;;22.10;;
18001;SDS011;9126;48.160;17.130;2022-10-16T10:24:59;30.50;;;23.55;;
18001;SDS011;9126;48.160;17.130;2022-10-16T10:31:21;29.60;;;22.75;;
18001;SDS011;9126;48.160;17.130;2022-10-16T10:34:02;32.33;;;23.30;;
18001;SDS011;9126;48.160;17.130;2022-10-16T10:36:48;27.73;;;22.70;;
18001;SDS011;9126;48.160;17.130;2022-10-16T10:39:24;31.08;;;23.98;;
18001;SDS011;9126;48.160;17.130;2022-10-16T10:42:08;25.77;;;21.77;;
18001;SDS011;9126;48.160;17.130;2022-10-16T10:44:50;31.73;;;22.35;;
18001;SDS011;9126;48.160;17.130;2022-10-16T10:47:35;31.92;;;23.88;;
18001;SDS011;9126;48.160;17.130;2022-10-16T10:50:12;29.58;;;22.35;;
18001;SDS011;9126;48.160;17.130;2022-10-16T10:52:53;31.17;;;24.08;;
18001;SDS011;9126;48.160;17.130;2022-10-16T10:55:28;26.90;;;22.90;;
18001;SDS011;9126;48.160;17.130;2022-10-16T10:58:12;30.20;;;22.02;;
18001;SDS011;9126;48.160;17.130;2022-10-16T11:00:52;28.20;;;22.75;;
18001;SDS011;9126;48.160;17.130;2022-10-16T11:03:35;33.42;;;24.13;;
18001;SDS011;9126;48.160;17.130;2022-10-16T11:06:22;28.50;;;21.73;;
18001;SDS011;9126;48.160;17.130;2022-10-16T11:08:55;28.27;;;23.23;;
18001;SDS011;9126;48.160;17.130;2022-10-16T11:11:40;31.17;;;23.27;;
18001;SDS011;9126;48.160;17.130;2022-10-16T11:14:14;27.02;;;22.52;;
18001;SDS011;9126;48.160;17.130;2022-10-16T11:16:48;31.85;;;23.33;;
18001;SDS011;9126;48.160;17.130;2022-10-16T11:19:25;28.60;;;22.83;;
18001;SDS011;9126;48.160;17.130;2022-10-16T11:22:03;32.65;;;24.80;;
18001;SDS011;9126;48.160;17.130;2022-10-16T11:24:45;33.67;;;24.08;;
18001;SDS011;9126;48.160;17.130;2022-10-16T11:27:19;32.88;;;23.90;;
18001;SDS011;9126;48.160;17.130;2022-10-16T11:29:52;29.13;;;23.52;;
18001;SDS011;9126;48.160;17.130;2022-10-16T11:32:33;27.52;;;23.23;;
18001;SDS011;9126;48.160;17.130;2022-10-16T11:35:11;26.80;;;22.63;;
18001;SDS011;9126;48.160;17.130;2022-10-16T11:37:45;32.42;;;23.92;;
18001;SDS011;9126;48.160;17.130;2022-10-16T11:40:19;30.70;;;23.42;;
18001;SDS011;9126;48.160;17.130;2022-10-16T11:42:51;27.27;;;22.88;;
18001;SDS011;9126;48.160;17.130;2022-10-16T11:45:24;30.20;;;23.73;;
18001;SDS011;9126;48.160;17.130;2022-10-16T11:48:00;32.85;;;23.50;;
18001;SDS011;9126;48.160;17.130;2022-10-16T11:50:37;32.15;;;22.35;;
18001;SDS011;9126;48.160;17.130;2022-10-16T11:53:13;28.35;;;23.17;;
18001;SDS011;9126;48.160;17.130;2022-10-16T11:55:44;27.30;;;22.73;;
18001;SDS011;9126;48.160;17.130;2022-10-16T11:58:16;28.42;;;23.10;;
18001;SDS011;9126;48.160;17.130;2022-10-16T12:00:58;26.63;;;22.80;;
18001;SDS011;9126;48.160;17.130;2022-10-16T12:03:32;30.25;;;23.75;;
18001;SDS011;9126;48.160;17.130;2022-10-16T12:06:25;30.52;;;22.52;;
18001;SDS011;9126;48.160;17.130;2022-10-16T12:08:58;29.92;;;23.25;;
18001;SDS011;9126;48.160;17.130;2022-10-16T12:11:33;30.63;;;23.80;;
18001;SDS011;9126;48.160;17.130;2022-10-16T12:14:06;34.15;;;23.63;;
18001;SDS011;9126;48.160;17.130;2022-10-16T12:16:53;29.45;;;22.50;;
18001;SDS011;9126;48.160;17.130;2022-10-16T12:19:22;29.92;;;22.90;;
18001;SDS011;9126;48.160;17.130;2022-10-16T12:21:52;30.05;;;22.33;;
18001;SDS011;9126;48.160;17.130;2022-10-16T12:24:26;25.35;;;22.15;;
18001;SDS011;9126;48.160;17.130;2022-10-16T12:26:58;29.73;;;22.25;;
18001;SDS011;9126;48.160;17.130;2022-10-16T12:29:30;26.70;;;22.75;;
18001;SDS011;9126;48.160;17.130;2022-10-16T12:32:00;25.13;;;21.77;;
18001;SDS011;9126;48.160;17.130;2022-10-16T12:34:32;26.80;;;22.85;;
18001;SDS011;9126;48.160;17.130;2022-10-16T12:37:12;26.92;;;21.40;;
18001;SDS011;9126;48.160;17.130;2022-10-16T12:39:41;26.98;;;22.38;;
18001;SDS011;9126;48.160;17.130;2022-10-16T12:42:22;33.90;;;22.73;;
18001;SDS011;9126;48.160;17.130;2022-10-16T12:44:59;25.33;;;21.38;;
18001;SDS011;9126;48.160;17.130;2022-10-16T12:47:38;25.90;;;22.13;;
18001;SDS011;9126;48.160;17.130;2022-10-16T12:53:16;27.27;;;20.92;;
18001;SDS011;9126;48.160;17.130;2022-10-16T13:01:34;24.77;;;20.48;;
18001;SDS011;9126;48.160;17.130;2022-10-16T13:04:39;26.10;;;20.42;;
18001;SDS011;9126;48.160;17.130;2022-10-16T13:07:22;24.00;;;19.75;;
18001;SDS011;9126;48.160;17.130;2022-10-16T13:10:17;22.58;;;19.67;;
18001;SDS011;9126;48.160;17.130;2022-10-16T13:13:04;23.45;;;20.95;;
18001;SDS011;9126;48.160;17.130;2022-10-16T13:16:08;21.27;;;18.95;;
18001;SDS011;9126;48.160;17.130;2022-10-16T13:18:49;22.58;;;19.35;;
18001;SDS011;9126;48.160;17.130;2022-10-16T13:21:33;22.83;;;18.50;;
18001;SDS011;9126;48.160;17.130;2022-10-16T13:24:14;23.58;;;18.65;;
18001;SDS011;9126;48.160;17.130;2022-10-16T13:26:55;23.40;;;18.23;;
18001;SDS011;9126;48.160;17.130;2022-10-16T13:29:34;23.95;;;18.55;;
18001;SDS011;9126;48.160;17.130;2022-10-16T13:32:07;25.63;;;18.52;;
18001;SDS011;9126;48.160;17.130;2022-10-16T13:34:43;24.25;;;17.95;;
18001;SDS011;9126;48.160;17.130;2022-10-16T13:37:16;22.75;;;18.55;;
18001;SDS011;9126;48.160;17.130;2022-10-16T13:39:47;26.10;;;17.40;;
18001;SDS011;9126;48.160;17.130;2022-10-16T13:42:18;21.08;;;17.27;;
18001;SDS011;9126;48.160;17.130;2022-10-16T13:44:53;23.35;;;17.85;;
18001;SDS011;9126;48.160;17.130;2022-10-16T13:47:22;21.50;;;17.55;;
18001;SDS011;9126;48.160;17.130;2022-10-16T13:49:59;18.83;;;16.77;;
18001;SDS011;9126;48.160;17.130;2022-10-16T13:52:27;23.42;;;17.20;;
18001;SDS011;9126;48.160;17.130;2022-10-16T13:54:56;20.60;;;16.45;;
18001;SDS011;9126;48.160;17.130;2022-10-16T14:00:31;18.98;;;16.55;;
18001;SDS011;9126;48.160;17.130;2022-10-16T14:03:18;20.17;;;16.88;;
18001;SDS011;9126;48.160;17.130;2022-10-16T14:05:52;20.98;;;15.80;;
18001;SDS011;9126;48.160;17.130;2022-10-16T14:08:26;18.40;;;16.23;;
18001;SDS011;9126;48.160;17.130;2022-10-16T14:11:03;20.63;;;16.65;;
18001;SDS011;9126;48.160;17.130;2022-10-16T14:13:38;18.75;;;16.73;;
18001;SDS011;9126;48.160;17.130;2022-10-16T14:16:17;19.02;;;16.08;;
18001;SDS011;9126;48.160;17.130;2022-10-16T14:18:52;24.13;;;17.48;;
18001;SDS011;9126;48.160;17.130;2022-10-16T14:21:23;24.70;;;16.80;;
18001;SDS011;9126;48.160;17.130;2022-10-16T14:23:56;20.63;;;17.13;;
18001;SDS011;9126;48.160;17.130;2022-10-16T14:26:41;23.02;;;16.67;;
18001;SDS011;9126;48.160;17.130;2022-10-16T14:29:12;17.52;;;15.73;;
18001;SDS011;9126;48.160;17.130;2022-10-16T14:31:40;19.90;;;15.35;;
18001;SDS011;9126;48.160;17.130;2022-10-16T14:34:24;17.52;;;15.30;;
18001;SDS011;9126;48.160;17.130;2022-10-16T14:36:59;16.20;;;14.57;;
18001;SDS011;9126;48.160;17.130;2022-10-16T14:39:32;18.65;;;15.60;;
18001;SDS011;9126;48.160;17.130;2022-10-16T14:42:00;18.83;;;14.77;;
18001;SDS011;9126;48.160;17.130;2022-10-16T14:44:29;22.20;;;15.45;;
18001;SDS011;9126;48.160;17.130;2022-10-16T14:47:26;18.05;;;15.52;;
18001;SDS011;9126;48.160;17.130;2022-10-16T14:49:53;22.35;;;15.63;;
18001;SDS011;9126;48.160;17.130;2022-10-16T14:52:23;17.85;;;15.30;;
18001;SDS011;9126;48.160;17.130;2022-10-16T14:54:50;17.25;;;15.32;;
18001;SDS011;9126;48.160;17.130;2022-10-16T14:57:20;16.20;;;14.50;;
18001;SDS011;9126;48.160;17.130;2022-10-16T14:59:51;20.00;;;14.68;;
18001;SDS011;9126;48.160;17.130;2022-10-16T15:02:21;18.83;;;15.85;;
18001;SDS011;9126;48.160;17.130;2022-10-16T15:04:55;20.80;;;16.08;;
18001;SDS011;9126;48.160;17.130;2022-10-16T15:07:24;18.30;;;15.75;;
18001;SDS011;9126;48.160;17.130;2022-10-16T15:09:53;19.17;;;15.10;;
18001;SDS011;9126;48.160;17.130;2022-10-16T15:12:23;18.05;;;15.35;;
18001;SDS011;9126;48.160;17.130;2022-10-16T15:18:04;16.67;;;14.63;;
18001;SDS011;9126;48.160;17.130;2022-10-16T15:20:51;23.40;;;15.93;;